sensor_id;sensor_type;location;lat;lon;timestamp;P1;durP1;ratioP1;P2;durP2;ratioP2
14247;SDS011;7208;49.826;6.004;2023-04-24T00:01:27;2.53;;;2.33;;
14247;SDS011;7208;49.826;6.004;2023-04-24T00:03:54;3.23;;;2.93;;
14247;SDS011;7208;49.826;6.004;2023-04-24T00:06:24;2.43;;;2.23;;
14247;SDS011;7208;49.826;6.004;2023-04-24T00:08:57;4.13;;;3.23;;
14247;SDS011;7208;49.826;6.004;2023-04-24T00:11:26;4.10;;;3.20;;
14247;SDS011;7208;49.826;6.004;2023-04-24T00:13:52;3.80;;;3.50;;
14247;SDS011;7208;49.826;6.004;2023-04-24T00:16:18;5.37;;;3.60;;
14247;SDS011;7208;49.826;6.004;2023-04-24T00:18:44;4.57;;;3.80;;
14247;SDS011;7208;49.826;6.004;2023-04-24T00:21:13;4.20;;;3.73;;
14247;SDS011;7208;49.826;6.004;2023-04-24T00:23:39;5.13;;;3.33;;
14247;SDS011;7208;49.826;6.004;2023-04-24T00:26:05;3.63;;;3.33;;
14247;SDS011;7208;49.826;6.004;2023-04-24T00:28:31;4.17;;;3.77;;
14247;SDS011;7208;49.826;6.004;2023-04-24T00:30:56;8.70;;;3.60;;
14247;SDS011;7208;49.826;6.004;2023-04-24T00:33:22;3.43;;;3.13;;
14247;SDS011;7208;49.826;6.004;2023-04-24T00:35:48;3.87;;;3.30;;
14247;SDS011;7208;49.826;6.004;2023-04-24T00:38:13;6.30;;;4.33;;
14247;SDS011;7208;49.826;6.004;2023-04-24T00:40:39;4.70;;;4.10;;
14247;SDS011;7208;49.826;6.004;2023-04-24T00:43:05;5.17;;;4.07;;
14247;SDS011;7208;49.826;6.004;2023-04-24T00:45:31;3.77;;;3.47;;
14247;SDS011;7208;49.826;6.004;2023-04-24T00:47:57;4.87;;;4.37;;
14247;SDS011;7208;49.826;6.004;2023-04-24T00:50:23;5.57;;;4.83;;
14247;SDS011;7208;49.826;6.004;2023-04-24T00:52:50;5.00;;;4.37;;
14247;SDS011;7208;49.826;6.004;2023-04-24T00:55:16;3.90;;;3.60;;
14247;SDS011;7208;49.826;6.004;2023-04-24T00:57:42;6.00;;;5.40;;
14247;SDS011;7208;49.826;6.004;2023-04-24T01:00:09;6.17;;;4.93;;
14247;SDS011;7208;49.826;6.004;2023-04-24T01:02:36;4.20;;;3.83;;
14247;SDS011;7208;49.826;6.004;2023-04-24T01:05:05;4.70;;;4.30;;
14247;SDS011;7208;49.826;6.004;2023-04-24T01:07:33;9.87;;;5.27;;
14247;SDS011;7208;49.826;6.004;2023-04-24T01:09:59;5.53;;;5.03;;
14247;SDS011;7208;49.826;6.004;2023-04-24T01:12:25;6.10;;;4.17;;
14247;SDS011;7208;49.826;6.004;2023-04-24T01:14:50;4.87;;;3.93;;
14247;SDS011;7208;49.826;6.004;2023-04-24T01:17:16;4.47;;;4.07;;
14247;SDS011;7208;49.826;6.004;2023-04-24T01:19:42;5.20;;;4.60;;
14247;SDS011;7208;49.826;6.004;2023-04-24T01:22:15;4.47;;;4.07;;
14247;SDS011;7208;49.826;6.004;2023-04-24T01:24:42;5.10;;;4.60;;
14247;SDS011;7208;49.826;6.004;2023-04-24T01:27:08;5.30;;;4.80;;
14247;SDS011;7208;49.826;6.004;2023-04-24T01:29:36;5.50;;;4.47;;
14247;SDS011;7208;49.826;6.004;2023-04-24T01:32:02;5.33;;;3.50;;
14247;SDS011;7208;49.826;6.004;2023-04-24T01:34:28;6.40;;;4.57;;
14247;SDS011;7208;49.826;6.004;2023-04-24T01:36:55;7.73;;;4.10;;
14247;SDS011;7208;49.826;6.004;2023-04-24T01:39:21;5.27;;;3.70;;
14247;SDS011;7208;49.826;6.004;2023-04-24T01:41:50;5.60;;;4.97;;
14247;SDS011;7208;49.826;6.004;2023-04-24T01:44:16;6.73;;;4.97;;
14247;SDS011;7208;49.826;6.004;2023-04-24T01:46:43;7.97;;;5.27;;
14247;SDS011;7208;49.826;6.004;2023-04-24T01:49:08;6.10;;;5.50;;
14247;SDS011;7208;49.826;6.004;2023-04-24T01:51:34;6.63;;;4.90;;
14247;SDS011;7208;49.826;6.004;2023-04-24T01:54:00;5.97;;;4.30;;
14247;SDS011;7208;49.826;6.004;2023-04-24T01:56:25;10.30;;;6.30;;
14247;SDS011;7208;49.826;6.004;2023-04-24T01:58:54;6.40;;;5.70;;
14247;SDS011;7208;49.826;6.004;2023-04-24T02:01:21;6.63;;;5.97;;
14247;SDS011;7208;49.826;6.004;2023-04-24T02:03:48;7.17;;;6.07;;
14247;SDS011;7208;49.826;6.004;2023-04-24T02:06:13;9.27;;;6.50;;
14247;SDS011;7208;49.826;6.004;2023-04-24T02:08:39;7.80;;;6.67;;
14247;SDS011;7208;49.826;6.004;2023-04-24T02:11:05;8.93;;;6.57;;
14247;SDS011;7208;49.826;6.004;2023-04-24T02:13:31;10.57;;;7.30;;
14247;SDS011;7208;49.826;6.004;2023-04-24T02:15:57;11.77;;;6.80;;
14247;SDS011;7208;49.826;6.004;2023-04-24T02:18:23;10.00;;;6.83;;
14247;SDS011;7208;49.826;6.004;2023-04-24T02:20:49;8.60;;;7.47;;
14247;SDS011;7208;49.826;6.004;2023-04-24T02:23:15;11.27;;;7.83;;
14247;SDS011;7208;49.826;6.004;2023-04-24T02:25:40;8.80;;;7.83;;
14247;SDS011;7208;49.826;6.004;2023-04-24T02:28:06;15.27;;;8.40;;
14247;SDS011;7208;49.826;6.004;2023-04-24T02:30:31;7.80;;;6.87;;
14247;SDS011;7208;49.826;6.004;2023-04-24T02:32:57;9.57;;;7.53;;
14247;SDS011;7208;49.826;6.004;2023-04-24T02:35:23;8.77;;;7.87;;
14247;SDS011;7208;49.826;6.004;2023-04-24T02:37:48;8.93;;;8.03;;
14247;SDS011;7208;49.826;6.004;2023-04-24T02:40:14;8.97;;;7.97;;
14247;SDS011;7208;49.826;6.004;2023-04-24T02:42:40;10.43;;;7.40;;
14247;SDS011;7208;49.826;6.004;2023-04-24T02:45:05;11.27;;;7.57;;
14247;SDS011;7208;49.826;6.004;2023-04-24T02:47:31;11.87;;;9.07;;
14247;SDS011;7208;49.826;6.004;2023-04-24T02:49:57;10.50;;;8.33;;
14247;SDS011;7208;49.826;6.004;2023-04-24T02:52:23;11.73;;;8.30;;
14247;SDS011;7208;49.826;6.004;2023-04-24T02:54:48;9.73;;;8.37;;
14247;SDS011;7208;49.826;6.004;2023-04-24T02:57:14;11.73;;;8.80;;
14247;SDS011;7208;49.826;6.004;2023-04-24T02:59:40;10.73;;;8.40;;
14247;SDS011;7208;49.826;6.004;2023-04-24T03:02:05;11.33;;;7.97;;
14247;SDS011;7208;49.826;6.004;2023-04-24T03:04:31;16.20;;;9.00;;
14247;SDS011;7208;49.826;6.004;2023-04-24T03:06:57;12.40;;;9.13;;
14247;SDS011;7208;49.826;6.004;2023-04-24T03:09:23;11.73;;;9.33;;
14247;SDS011;7208;49.826;6.004;2023-04-24T03:11:49;10.77;;;8.63;;
14247;SDS011;7208;49.826;6.004;2023-04-24T03:14:15;10.80;;;9.70;;
14247;SDS011;7208;49.826;6.004;2023-04-24T03:16:41;15.03;;;10.30;;
14247;SDS011;7208;49.826;6.004;2023-04-24T03:19:07;11.83;;;10.40;;
14247;SDS011;7208;49.826;6.004;2023-04-24T03:21:33;10.83;;;9.43;;
14247;SDS011;7208;49.826;6.004;2023-04-24T03:24:00;13.00;;;10.27;;
14247;SDS011;7208;49.826;6.004;2023-04-24T03:26:27;10.90;;;9.67;;
14247;SDS011;7208;49.826;6.004;2023-04-24T03:28:52;13.03;;;10.50;;
14247;SDS011;7208;49.826;6.004;2023-04-24T03:31:18;11.97;;;10.10;;
14247;SDS011;7208;49.826;6.004;2023-04-24T03:33:46;10.40;;;9.10;;
14247;SDS011;7208;49.826;6.004;2023-04-24T03:36:11;12.57;;;10.23;;
14247;SDS011;7208;49.826;6.004;2023-04-24T03:38:37;10.47;;;9.43;;
14247;SDS011;7208;49.826;6.004;2023-04-24T03:41:02;6.97;;;6.27;;
14247;SDS011;7208;49.826;6.004;2023-04-24T16:05:14;3.13;;;2.93;;
14247;SDS011;7208;49.826;6.004;2023-04-24T16:07:40;3.57;;;3.23;;
14247;SDS011;7208;49.826;6.004;2023-04-24T16:10:06;3.90;;;3.43;;
14247;SDS011;7208;49.826;6.004;2023-04-24T16:12:33;3.77;;;3.20;;
14247;SDS011;7208;49.826;6.004;2023-04-24T16:14:58;3.43;;;3.13;;
14247;SDS011;7208;49.826;6.004;2023-04-24T16:17:24;3.47;;;3.17;;
14247;SDS011;7208;49.826;6.004;2023-04-24T16:19:50;3.20;;;2.90;;
14247;SDS011;7208;49.826;6.004;2023-04-24T16:22:16;3.93;;;3.50;;
14247;SDS011;7208;49.826;6.004;2023-04-24T16:24:41;2.87;;;2.57;;
14247;SDS011;7208;49.826;6.004;2023-04-24T16:27:08;3.20;;;3.00;;
14247;SDS011;7208;49.826;6.004;2023-04-24T16:29:34;4.20;;;3.80;;
14247;SDS011;7208;49.826;6.004;2023-04-24T16:32:00;3.87;;;3.57;;
14247;SDS011;7208;49.826;6.004;2023-04-24T16:34:25;4.07;;;3.67;;
14247;SDS011;7208;49.826;6.004;2023-04-24T16:36:51;4.43;;;3.80;;
14247;SDS011;7208;49.826;6.004;2023-04-24T16:39:16;4.50;;;4.10;;
14247;SDS011;7208;49.826;6.004;2023-04-24T16:41:42;5.07;;;3.93;;
14247;SDS011;7208;49.826;6.004;2023-04-24T16:44:08;3.80;;;3.50;;
14247;SDS011;7208;49.826;6.004;2023-04-24T16:46:34;0.80;;;0.80;;
14247;SDS011;7208;49.826;6.004;2023-04-24T16:48:59;1.20;;;1.10;;
14247;SDS011;7208;49.826;6.004;2023-04-24T16:51:25;0.70;;;0.70;;
14247;SDS011;7208;49.826;6.004;2023-04-24T16:53:51;1.23;;;1.00;;
14247;SDS011;7208;49.826;6.004;2023-04-24T16:56:17;1.20;;;1.10;;
14247;SDS011;7208;49.826;6.004;2023-04-24T16:58:43;1.13;;;1.03;;
14247;SDS011;7208;49.826;6.004;2023-04-24T17:01:08;0.90;;;0.90;;
14247;SDS011;7208;49.826;6.004;2023-04-24T17:03:34;0.80;;;0.80;;
14247;SDS011;7208;49.826;6.004;2023-04-24T17:06:00;2.70;;;1.30;;
14247;SDS011;7208;49.826;6.004;2023-04-24T17:08:25;1.03;;;1.00;;
14247;SDS011;7208;49.826;6.004;2023-04-24T17:10:52;1.33;;;1.23;;
14247;SDS011;7208;49.826;6.004;2023-04-24T17:13:17;1.27;;;1.17;;
14247;SDS011;7208;49.826;6.004;2023-04-24T17:15:43;1.53;;;1.40;;
14247;SDS011;7208;49.826;6.004;2023-04-24T17:18:09;1.90;;;1.67;;
14247;SDS011;7208;49.826;6.004;2023-04-24T17:20:35;1.47;;;1.37;;
14247;SDS011;7208;49.826;6.004;2023-04-24T17:23:00;1.70;;;1.60;;
14247;SDS011;7208;49.826;6.004;2023-04-24T17:25:26;1.77;;;1.67;;
14247;SDS011;7208;49.826;6.004;2023-04-24T17:27:51;1.27;;;1.17;;
14247;SDS011;7208;49.826;6.004;2023-04-24T17:30:17;1.70;;;1.60;;
14247;SDS011;7208;49.826;6.004;2023-04-24T17:32:43;1.77;;;1.57;;
14247;SDS011;7208;49.826;6.004;2023-04-24T17:35:08;1.80;;;1.70;;
14247;SDS011;7208;49.826;6.004;2023-04-24T17:37:34;1.43;;;1.33;;
14247;SDS011;7208;49.826;6.004;2023-04-24T17:40:00;2.53;;;1.93;;
14247;SDS011;7208;49.826;6.004;2023-04-24T17:42:26;1.93;;;1.83;;
14247;SDS011;7208;49.826;6.004;2023-04-24T17:44:51;2.53;;;2.33;;
14247;SDS011;7208;49.826;6.004;2023-04-24T17:47:17;1.70;;;1.60;;
14247;SDS011;7208;49.826;6.004;2023-04-24T17:49:44;2.30;;;2.10;;
14247;SDS011;7208;49.826;6.004;2023-04-24T17:52:10;2.20;;;1.90;;
14247;SDS011;7208;49.826;6.004;2023-04-24T17:54:36;2.30;;;2.10;;
14247;SDS011;7208;49.826;6.004;2023-04-24T17:57:01;2.47;;;2.00;;
14247;SDS011;7208;49.826;6.004;2023-04-24T17:59:27;1.70;;;1.60;;
14247;SDS011;7208;49.826;6.004;2023-04-24T18:01:53;2.30;;;2.10;;
14247;SDS011;7208;49.826;6.004;2023-04-24T18:04:19;3.27;;;2.33;;
14247;SDS011;7208;49.826;6.004;2023-04-24T18:06:44;2.50;;;2.30;;
14247;SDS011;7208;49.826;6.004;2023-04-24T18:09:10;2.87;;;2.40;;
14247;SDS011;7208;49.826;6.004;2023-04-24T18:11:36;2.33;;;2.10;;
14247;SDS011;7208;49.826;6.004;2023-04-24T18:14:02;2.87;;;2.57;;
14247;SDS011;7208;49.826;6.004;2023-04-24T18:16:28;2.60;;;2.40;;
14247;SDS011;7208;49.826;6.004;2023-04-24T18:18:53;3.30;;;2.13;;
14247;SDS011;7208;49.826;6.004;2023-04-24T18:21:19;2.63;;;2.27;;
14247;SDS011;7208;49.826;6.004;2023-04-24T18:23:44;2.40;;;2.20;;
14247;SDS011;7208;49.826;6.004;2023-04-24T18:26:10;2.50;;;2.30;;
14247;SDS011;7208;49.826;6.004;2023-04-24T18:28:41;2.90;;;2.00;;
14247;SDS011;7208;49.826;6.004;2023-04-24T18:31:07;3.17;;;2.47;;
14247;SDS011;7208;49.826;6.004;2023-04-24T18:33:33;2.93;;;2.63;;
14247;SDS011;7208;49.826;6.004;2023-04-24T18:35:59;2.30;;;2.10;;
14247;SDS011;7208;49.826;6.004;2023-04-24T18:38:24;2.27;;;2.07;;
14247;SDS011;7208;49.826;6.004;2023-04-24T18:40:50;2.60;;;2.40;;
14247;SDS011;7208;49.826;6.004;2023-04-24T18:43:15;3.70;;;2.57;;
14247;SDS011;7208;49.826;6.004;2023-04-24T18:45:41;2.80;;;2.57;;
14247;SDS011;7208;49.826;6.004;2023-04-24T18:48:07;3.43;;;2.47;;
14247;SDS011;7208;49.826;6.004;2023-04-24T18:50:32;4.97;;;3.30;;
14247;SDS011;7208;49.826;6.004;2023-04-24T18:52:58;3.50;;;3.20;;
14247;SDS011;7208;49.826;6.004;2023-04-24T18:55:24;4.20;;;3.30;;
14247;SDS011;7208;49.826;6.004;2023-04-24T18:57:49;3.97;;;3.53;;
14247;SDS011;7208;49.826;6.004;2023-04-24T19:00:15;4.87;;;4.17;;
14247;SDS011;7208;49.826;6.004;2023-04-24T19:02:42;3.47;;;3.10;;
14247;SDS011;7208;49.826;6.004;2023-04-24T19:05:08;3.47;;;3.17;;
14247;SDS011;7208;49.826;6.004;2023-04-24T19:07:35;4.53;;;4.00;;
14247;SDS011;7208;49.826;6.004;2023-04-24T19:10:01;3.90;;;3.60;;
14247;SDS011;7208;49.826;6.004;2023-04-24T19:12:26;3.87;;;3.47;;
14247;SDS011;7208;49.826;6.004;2023-04-24T19:14:52;3.83;;;3.27;;
14247;SDS011;7208;49.826;6.004;2023-04-24T19:17:20;3.97;;;3.57;;
14247;SDS011;7208;49.826;6.004;2023-04-24T19:19:48;3.57;;;3.20;;
14247;SDS011;7208;49.826;6.004;2023-04-24T19:22:15;4.77;;;3.80;;
14247;SDS011;7208;49.826;6.004;2023-04-24T19:24:41;4.27;;;3.87;;
14247;SDS011;7208;49.826;6.004;2023-04-24T19:27:06;3.73;;;3.43;;
14247;SDS011;7208;49.826;6.004;2023-04-24T19:29:32;3.70;;;3.40;;
14247;SDS011;7208;49.826;6.004;2023-04-24T19:31:57;3.83;;;3.47;;
14247;SDS011;7208;49.826;6.004;2023-04-24T19:34:23;4.57;;;4.00;;
14247;SDS011;7208;49.826;6.004;2023-04-24T19:36:50;5.10;;;4.60;;
14247;SDS011;7208;49.826;6.004;2023-04-24T19:39:15;4.20;;;3.80;;
14247;SDS011;7208;49.826;6.004;2023-04-24T19:41:41;4.10;;;3.63;;
14247;SDS011;7208;49.826;6.004;2023-04-24T19:44:06;4.20;;;3.80;;
14247;SDS011;7208;49.826;6.004;2023-04-24T19:46:32;4.07;;;3.63;;
14247;SDS011;7208;49.826;6.004;2023-04-24T19:48:58;5.00;;;4.00;;
14247;SDS011;7208;49.826;6.004;2023-04-24T19:51:23;4.00;;;3.43;;
14247;SDS011;7208;49.826;6.004;2023-04-24T19:53:49;4.30;;;3.77;;
14247;SDS011;7208;49.826;6.004;2023-04-24T19:56:15;4.37;;;3.67;;
14247;SDS011;7208;49.826;6.004;2023-04-24T19:58:40;4.70;;;4.30;;
14247;SDS011;7208;49.826;6.004;2023-04-24T20:01:06;9.87;;;5.27;;
14247;SDS011;7208;49.826;6.004;2023-04-24T20:03:32;7.33;;;6.30;;
14247;SDS011;7208;49.826;6.004;2023-04-24T20:05:58;6.13;;;5.43;;
14247;SDS011;7208;49.826;6.004;2023-04-24T20:08:23;6.23;;;5.50;;
14247;SDS011;7208;49.826;6.004;2023-04-24T20:10:49;6.27;;;5.20;;
14247;SDS011;7208;49.826;6.004;2023-04-24T20:13:16;6.00;;;5.30;;
14247;SDS011;7208;49.826;6.004;2023-04-24T20:15:41;6.17;;;5.57;;
14247;SDS011;7208;49.826;6.004;2023-04-24T20:18:07;5.60;;;4.93;;
14247;SDS011;7208;49.826;6.004;2023-04-24T20:20:33;5.50;;;5.00;;
14247;SDS011;7208;49.826;6.004;2023-04-24T20:23:02;5.10;;;4.60;;
14247;SDS011;7208;49.826;6.004;2023-04-24T20:25:28;5.47;;;4.97;;
14247;SDS011;7208;49.826;6.004;2023-04-24T20:27:54;5.70;;;4.90;;
14247;SDS011;7208;49.826;6.004;2023-04-24T20:30:19;4.93;;;4.53;;
14247;SDS011;7208;49.826;6.004;2023-04-24T20:32:45;4.73;;;4.30;;
14247;SDS011;7208;49.826;6.004;2023-04-24T20:35:11;6.40;;;5.33;;
14247;SDS011;7208;49.826;6.004;2023-04-24T20:37:37;5.20;;;4.70;;
14247;SDS011;7208;49.826;6.004;2023-04-24T20:40:03;6.17;;;5.20;;
14247;SDS011;7208;49.826;6.004;2023-04-24T20:42:32;4.57;;;4.03;;
14247;SDS011;7208;49.826;6.004;2023-04-24T20:44:58;6.20;;;5.23;;
14247;SDS011;7208;49.826;6.004;2023-04-24T20:47:24;5.67;;;4.87;;
14247;SDS011;7208;49.826;6.004;2023-04-24T20:49:50;5.03;;;4.53;;
14247;SDS011;7208;49.826;6.004;2023-04-24T20:52:16;5.23;;;4.30;;
14247;SDS011;7208;49.826;6.004;2023-04-24T20:54:42;4.93;;;4.43;;
14247;SDS011;7208;49.826;6.004;2023-04-24T20:57:08;5.23;;;4.37;;
14247;SDS011;7208;49.826;6.004;2023-04-24T20:59:33;4.40;;;4.00;;
14247;SDS011;7208;49.826;6.004;2023-04-24T21:02:00;5.67;;;4.10;;
14247;SDS011;7208;49.826;6.004;2023-04-24T21:04:25;4.23;;;3.83;;
14247;SDS011;7208;49.826;6.004;2023-04-24T21:06:51;4.80;;;4.27;;
14247;SDS011;7208;49.826;6.004;2023-04-24T21:09:17;4.63;;;3.67;;
14247;SDS011;7208;49.826;6.004;2023-04-24T21:11:42;5.43;;;4.53;;
14247;SDS011;7208;49.826;6.004;2023-04-24T21:14:08;5.77;;;5.00;;
14247;SDS011;7208;49.826;6.004;2023-04-24T21:16:34;4.73;;;4.23;;
14247;SDS011;7208;49.826;6.004;2023-04-24T21:19:00;5.07;;;4.57;;
14247;SDS011;7208;49.826;6.004;2023-04-24T21:21:26;4.23;;;3.67;;
14247;SDS011;7208;49.826;6.004;2023-04-24T21:23:52;5.70;;;5.10;;
14247;SDS011;7208;49.826;6.004;2023-04-24T21:26:17;5.40;;;4.90;;
14247;SDS011;7208;49.826;6.004;2023-04-24T21:28:43;5.73;;;5.13;;
14247;SDS011;7208;49.826;6.004;2023-04-24T21:31:09;5.63;;;4.30;;
14247;SDS011;7208;49.826;6.004;2023-04-24T21:33:35;5.33;;;4.83;;
14247;SDS011;7208;49.826;6.004;2023-04-24T21:36:01;5.00;;;4.50;;
14247;SDS011;7208;49.826;6.004;2023-04-24T21:38:27;6.07;;;4.47;;
14247;SDS011;7208;49.826;6.004;2023-04-24T21:40:53;5.73;;;5.07;;
14247;SDS011;7208;49.826;6.004;2023-04-24T21:43:19;5.33;;;4.33;;
14247;SDS011;7208;49.826;6.004;2023-04-24T21:45:45;6.93;;;5.07;;
14247;SDS011;7208;49.826;6.004;2023-04-24T21:48:11;5.53;;;4.93;;
14247;SDS011;7208;49.826;6.004;2023-04-24T21:50:37;6.13;;;5.30;;
14247;SDS011;7208;49.826;6.004;2023-04-24T21:53:03;5.87;;;5.10;;
14247;SDS011;7208;49.826;6.004;2023-04-24T21:55:29;6.60;;;4.97;;
14247;SDS011;7208;49.826;6.004;2023-04-24T21:57:55;6.17;;;5.00;;
14247;SDS011;7208;49.826;6.004;2023-04-24T22:00:21;6.53;;;5.03;;
14247;SDS011;7208;49.826;6.004;2023-04-24T22:02:47;7.17;;;6.07;;
14247;SDS011;7208;49.826;6.004;2023-04-24T22:05:13;8.17;;;5.70;;
14247;SDS011;7208;49.826;6.004;2023-04-24T22:07:42;5.87;;;5.33;;
14247;SDS011;7208;49.826;6.004;2023-04-24T22:10:09;5.43;;;4.93;;
14247;SDS011;7208;49.826;6.004;2023-04-24T22:12:39;6.83;;;5.17;;
14247;SDS011;7208;49.826;6.004;2023-04-24T22:15:06;5.40;;;4.90;;
14247;SDS011;7208;49.826;6.004;2023-04-24T22:17:32;8.63;;;5.83;;
14247;SDS011;7208;49.826;6.004;2023-04-24T22:19:58;6.00;;;5.17;;
14247;SDS011;7208;49.826;6.004;2023-04-24T22:22:25;7.60;;;6.00;;
14247;SDS011;7208;49.826;6.004;2023-04-24T22:24:51;7.60;;;6.07;;
14247;SDS011;7208;49.826;6.004;2023-04-24T22:27:17;6.77;;;5.70;;
14247;SDS011;7208;49.826;6.004;2023-04-24T22:29:43;6.47;;;5.87;;
14247;SDS011;7208;49.826;6.004;2023-04-24T22:32:08;6.87;;;5.87;;
14247;SDS011;7208;49.826;6.004;2023-04-24T22:34:34;5.83;;;5.27;;
14247;SDS011;7208;49.826;6.004;2023-04-24T22:37:00;7.70;;;6.03;;
14247;SDS011;7208;49.826;6.004;2023-04-24T22:39:25;7.00;;;6.30;;
14247;SDS011;7208;49.826;6.004;2023-04-24T22:41:51;6.97;;;6.27;;
14247;SDS011;7208;49.826;6.004;2023-04-24T22:44:17;6.60;;;6.00;;
14247;SDS011;7208;49.826;6.004;2023-04-24T22:46:43;6.13;;;5.53;;
14247;SDS011;7208;49.826;6.004;2023-04-24T22:49:09;7.17;;;6.43;;
14247;SDS011;7208;49.826;6.004;2023-04-24T22:51:35;8.17;;;6.97;;
14247;SDS011;7208;49.826;6.004;2023-04-24T22:54:01;6.57;;;5.90;;
14247;SDS011;7208;49.826;6.004;2023-04-24T22:56:28;8.03;;;6.23;;
14247;SDS011;7208;49.826;6.004;2023-04-24T22:58:53;6.20;;;5.47;;
14247;SDS011;7208;49.826;6.004;2023-04-24T23:01:20;6.70;;;5.60;;
14247;SDS011;7208;49.826;6.004;2023-04-24T23:03:45;6.47;;;5.83;;
14247;SDS011;7208;49.826;6.004;2023-04-24T23:06:11;5.50;;;5.07;;
14247;SDS011;7208;49.826;6.004;2023-04-24T23:08:37;6.77;;;5.87;;
14247;SDS011;7208;49.826;6.004;2023-04-24T23:11:02;6.30;;;5.43;;
14247;SDS011;7208;49.826;6.004;2023-04-24T23:13:28;6.80;;;5.60;;
14247;SDS011;7208;49.826;6.004;2023-04-24T23:15:54;5.37;;;4.80;;
14247;SDS011;7208;49.826;6.004;2023-04-24T23:18:20;8.53;;;5.53;;
14247;SDS011;7208;49.826;6.004;2023-04-24T23:20:45;7.23;;;6.40;;
14247;SDS011;7208;49.826;6.004;2023-04-24T23:23:11;6.87;;;6.10;;
14247;SDS011;7208;49.826;6.004;2023-04-24T23:25:36;7.07;;;6.23;;
14247;SDS011;7208;49.826;6.004;2023-04-24T23:28:03;6.97;;;5.47;;
14247;SDS011;7208;49.826;6.004;2023-04-24T23:30:28;6.37;;;5.77;;
14247;SDS011;7208;49.826;6.004;2023-04-24T23:32:54;7.10;;;6.37;;
14247;SDS011;7208;49.826;6.004;2023-04-24T23:35:20;7.63;;;6.80;;
14247;SDS011;7208;49.826;6.004;2023-04-24T23:37:46;7.10;;;5.80;;
14247;SDS011;7208;49.826;6.004;2023-04-24T23:40:12;7.63;;;5.90;;
14247;SDS011;7208;49.826;6.004;2023-04-24T23:42:38;6.97;;;6.27;;
14247;SDS011;7208;49.826;6.004;2023-04-24T23:45:03;7.47;;;6.03;;
14247;SDS011;7208;49.826;6.004;2023-04-24T23:47:29;9.00;;;7.03;;
14247;SDS011;7208;49.826;6.004;2023-04-24T23:49:55;6.43;;;5.83;;
14247;SDS011;7208;49.826;6.004;2023-04-24T23:52:20;8.93;;;6.33;;
14247;SDS011;7208;49.826;6.004;2023-04-24T23:54:46;6.33;;;5.20;;
14247;SDS011;7208;49.826;6.004;2023-04-24T23:57:12;7.30;;;6.13;;
14247;SDS011;7208;49.826;6.004;2023-04-24T23:59:37;5.53;;;5.00;;
